createdAt,value
2018-08-21T00:00:46.400Z,1016.22
2018-08-21T00:01:55.699Z,1016.24
2018-08-21T00:03:05.530Z,1016.28
2018-08-21T00:04:14.914Z,1016.22
2018-08-21T00:05:24.497Z,1016.29
2018-08-21T00:06:33.868Z,1016.26
2018-08-21T00:07:42.903Z,1016.24
2018-08-21T00:08:52.518Z,1016.23
2018-08-21T00:10:02.352Z,1016.19
2018-08-21T00:11:11.624Z,1016.2
2018-08-21T00:12:20.743Z,1016.2
2018-08-21T00:13:30.045Z,1016.17
2018-08-21T00:14:39.427Z,1016.17
2018-08-21T00:15:48.766Z,1016.14
2018-08-21T00:16:57.975Z,1016.12
2018-08-21T00:18:06.864Z,1016.1
2018-08-21T00:19:16.190Z,1016.06
2018-08-21T00:20:25.309Z,1016.08
2018-08-21T00:21:34.887Z,1016.11
2018-08-21T00:22:44.468Z,1016.11
2018-08-21T00:23:53.893Z,1016.1
2018-08-21T00:25:02.650Z,1016.14
2018-08-21T00:26:12.201Z,1016.16
2018-08-21T00:27:21.676Z,1016.14
2018-08-21T00:28:31.395Z,1016.15
2018-08-21T00:29:40.971Z,1016.19
2018-08-21T00:30:50.621Z,1016.2
2018-08-21T00:32:00.068Z,1016.16
2018-08-21T00:33:09.627Z,1016.15
2018-08-21T00:34:19.153Z,1016.13
2018-08-21T00:35:28.215Z,1016.15
2018-08-21T00:36:37.422Z,1016.13
2018-08-21T00:37:46.934Z,1016.15
2018-08-21T00:38:55.948Z,1016.16
2018-08-21T00:40:05.186Z,1016.13
2018-08-21T00:41:15.002Z,1016.14
2018-08-21T00:42:24.416Z,1016.15
2018-08-21T00:43:34.267Z,1016.11
2018-08-21T00:44:43.345Z,1016.13
2018-08-21T00:45:53.148Z,1016.15
2018-08-21T00:47:02.467Z,1016.14
2018-08-21T00:48:11.882Z,1016.17
2018-08-21T00:49:21.195Z,1016.19
2018-08-21T00:50:30.268Z,1016.18
2018-08-21T00:51:39.558Z,1016.17
2018-08-21T00:52:48.909Z,1016.17
2018-08-21T00:53:58.222Z,1016.18
2018-08-21T00:55:08.033Z,1016.17
2018-08-21T00:56:17.666Z,1016.19
2018-08-21T00:57:27.218Z,1016.2
2018-08-21T00:58:36.319Z,1016.17
2018-08-21T00:59:45.638Z,1016.15
2018-08-21T01:00:54.492Z,1016.11
2018-08-21T01:02:04.076Z,1016.11
2018-08-21T01:03:13.885Z,1016.11
2018-08-21T01:04:23.009Z,1016.09
2018-08-21T01:05:32.569Z,1016.07
2018-08-21T01:06:42.480Z,1016.06
2018-08-21T01:07:51.496Z,1016.09
2018-08-21T01:09:01.155Z,1016.07
2018-08-21T01:10:11.307Z,1016.06
2018-08-21T01:11:20.673Z,1016.09
2018-08-21T01:12:30.327Z,1016.16
2018-08-21T01:13:39.434Z,1016.1
2018-08-21T01:14:49.080Z,1016.16
2018-08-21T01:15:58.677Z,1016.13
2018-08-21T01:17:08.375Z,1016.15
2018-08-21T01:18:18.041Z,1016.15
2018-08-21T01:19:27.725Z,1016.12
2018-08-21T01:20:37.141Z,1016.1
2018-08-21T01:21:46.895Z,1016.15
2018-08-21T01:22:56.147Z,1016.1
2018-08-21T01:24:05.237Z,1016.1
2018-08-21T01:25:14.374Z,1016.13
2018-08-21T01:26:23.696Z,1016.14
2018-08-21T01:27:32.495Z,1016.12
2018-08-21T01:28:42.440Z,1016.14
2018-08-21T01:29:52.172Z,1016.12
2018-08-21T01:31:01.501Z,1016.12
2018-08-21T01:32:10.852Z,1016.11
2018-08-21T01:33:20.273Z,1016.12
2018-08-21T01:34:29.442Z,1016.11
2018-08-21T01:35:38.286Z,1016.09
2018-08-21T01:36:47.664Z,1016.1
2018-08-21T01:37:57.252Z,1016.06
2018-08-21T01:39:06.666Z,1016.06
2018-08-21T01:40:16.545Z,1016.08
2018-08-21T01:41:25.429Z,1016.06
2018-08-21T01:42:35.338Z,1016.06
2018-08-21T01:43:44.702Z,1016.08
2018-08-21T01:44:53.774Z,1016.07
2018-08-21T01:46:03.489Z,1016.06
2018-08-21T01:47:13.090Z,1016.05
2018-08-21T01:48:23.026Z,1016.05
2018-08-21T01:49:32.662Z,1016.08
2018-08-21T01:50:42.300Z,1016.05
2018-08-21T01:51:52.195Z,1016.08
2018-08-21T01:53:02.061Z,1016.09
2018-08-21T01:54:11.169Z,1016.1
2018-08-21T01:55:21.030Z,1016.08
2018-08-21T01:56:30.529Z,1016.08
2018-08-21T01:57:40.091Z,1016.04
2018-08-21T01:58:50.324Z,1016.05
2018-08-21T02:00:00.193Z,1016.03
2018-08-21T02:01:09.490Z,1016
2018-08-21T02:02:18.787Z,1016.01
2018-08-21T02:03:28.441Z,1016
2018-08-21T02:04:38.603Z,1015.99
2018-08-21T02:05:48.250Z,1016.03
2018-08-21T02:06:57.924Z,1016
2018-08-21T02:08:07.258Z,1016.02
2018-08-21T02:09:16.341Z,1015.99
2018-08-21T02:10:25.958Z,1015.96
2018-08-21T02:11:35.356Z,1015.95
2018-08-21T02:12:44.738Z,1015.96
2018-08-21T02:13:54.339Z,1015.94
2018-08-21T02:15:04.125Z,1015.96
2018-08-21T02:16:13.739Z,1015.92
2018-08-21T02:17:23.311Z,1015.92
2018-08-21T02:18:32.413Z,1015.93
2018-08-21T02:19:41.774Z,1015.89
2018-08-21T02:20:50.810Z,1015.87
2018-08-21T02:22:00.277Z,1015.86
2018-08-21T02:23:09.603Z,1015.82
2018-08-21T02:24:19.169Z,1015.84
2018-08-21T02:25:28.489Z,1015.8
2018-08-21T02:26:37.537Z,1015.81
2018-08-21T02:27:46.868Z,1015.78
2018-08-21T02:28:55.924Z,1015.77
2018-08-21T02:30:05.452Z,1015.76
2018-08-21T02:31:15.358Z,1015.75
2018-08-21T02:32:24.657Z,1015.73
2018-08-21T02:33:33.939Z,1015.73
2018-08-21T02:34:43.513Z,1015.76
2018-08-21T02:35:53.140Z,1015.74
2018-08-21T02:37:02.693Z,1015.71
2018-08-21T02:38:12.016Z,1015.72
2018-08-21T02:39:21.260Z,1015.71
2018-08-21T02:40:30.601Z,1015.72
2018-08-21T02:41:40.630Z,1015.69
2018-08-21T02:42:50.241Z,1015.72
2018-08-21T02:43:59.935Z,1015.69
2018-08-21T02:45:08.773Z,1015.67
2018-08-21T02:46:17.882Z,1015.71
2018-08-21T02:47:27.924Z,1015.7
2018-08-21T02:48:37.484Z,1015.66
2018-08-21T02:49:46.811Z,1015.69
2018-08-21T02:50:56.364Z,1015.68
2018-08-21T02:52:05.858Z,1015.68
2018-08-21T02:53:15.717Z,1015.69
2018-08-21T02:54:25.397Z,1015.7
2018-08-21T02:55:34.690Z,1015.68
2018-08-21T02:56:44.508Z,1015.69
2018-08-21T02:57:54.053Z,1015.68
2018-08-21T02:59:03.376Z,1015.71
2018-08-21T03:00:12.551Z,1015.65
2018-08-21T03:01:21.381Z,1015.64
2018-08-21T03:02:30.781Z,1015.63
2018-08-21T03:03:40.129Z,1015.64
2018-08-21T03:04:49.185Z,1015.64
2018-08-21T03:05:58.296Z,1015.6
2018-08-21T03:07:07.539Z,1015.61
2018-08-21T03:08:17.086Z,1015.65
2018-08-21T03:09:26.335Z,1015.64
2018-08-21T03:10:35.148Z,1015.63
2018-08-21T03:11:44.507Z,1015.63
2018-08-21T03:12:53.332Z,1015.61
2018-08-21T03:14:02.147Z,1015.62
2018-08-21T03:15:11.529Z,1015.66
2018-08-21T03:16:20.825Z,1015.62
2018-08-21T03:17:30.677Z,1015.65
2018-08-21T03:18:39.929Z,1015.63
2018-08-21T03:19:49.741Z,1015.66
2018-08-21T03:20:58.760Z,1015.65
2018-08-21T03:22:07.823Z,1015.68
2018-08-21T03:23:16.824Z,1015.73
2018-08-21T03:24:26.093Z,1015.69
2018-08-21T03:25:35.866Z,1015.67
2018-08-21T03:26:45.159Z,1015.65
2018-08-21T03:27:54.441Z,1015.66
2018-08-21T03:29:04.017Z,1015.63
2018-08-21T03:30:13.462Z,1015.64
2018-08-21T03:31:23.202Z,1015.65
2018-08-21T03:32:32.737Z,1015.67
2018-08-21T03:33:42.187Z,1015.65
2018-08-21T03:34:51.489Z,1015.63
2018-08-21T03:36:01.131Z,1015.65
2018-08-21T03:37:10.397Z,1015.65
2018-08-21T03:38:19.992Z,1015.65
2018-08-21T03:39:29.321Z,1015.66
2018-08-21T03:40:39.010Z,1015.66
2018-08-21T03:41:48.548Z,1015.67
2018-08-21T03:42:58.482Z,1015.65
2018-08-21T03:44:07.850Z,1015.65
2018-08-21T03:45:17.651Z,1015.64
2018-08-21T03:46:27.023Z,1015.65
2018-08-21T03:47:36.391Z,1015.64
2018-08-21T03:48:46.257Z,1015.63
2018-08-21T03:49:55.355Z,1015.65
2018-08-21T03:51:05.139Z,1015.71
2018-08-21T03:52:15.141Z,1015.71
2018-08-21T03:53:24.791Z,1015.69
2018-08-21T03:54:34.205Z,1015.71
2018-08-21T03:55:43.258Z,1015.74
2018-08-21T03:56:52.667Z,1015.74
2018-08-21T03:58:02.266Z,1015.74
2018-08-21T03:59:12.116Z,1015.79
2018-08-21T04:00:21.664Z,1015.8
2018-08-21T04:01:31.004Z,1015.84
2018-08-21T04:02:40.675Z,1015.83
2018-08-21T04:03:49.771Z,1015.86
2018-08-21T04:04:59.389Z,1015.85
2018-08-21T04:06:09.511Z,1015.87
2018-08-21T04:07:19.409Z,1015.88
2018-08-21T04:08:28.783Z,1015.87
2018-08-21T04:09:38.444Z,1015.89
2018-08-21T04:10:47.534Z,1015.88
2018-08-21T04:11:57.440Z,1015.88
2018-08-21T04:13:06.827Z,1015.94
2018-08-21T04:14:17.181Z,1015.97
2018-08-21T04:15:26.748Z,1015.95
2018-08-21T04:16:36.440Z,1015.92
2018-08-21T04:17:46.330Z,1015.93
2018-08-21T04:18:55.832Z,1015.94
2018-08-21T04:20:05.677Z,1015.94
2018-08-21T04:21:15.456Z,1015.96
2018-08-21T04:22:25.366Z,1015.92
2018-08-21T04:23:34.948Z,1015.93
2018-08-21T04:24:44.613Z,1015.95
2018-08-21T04:25:53.818Z,1015.97
2018-08-21T04:27:03.350Z,1015.99
2018-08-21T04:28:13.183Z,1015.97
2018-08-21T04:29:22.750Z,1016.01
2018-08-21T04:30:31.621Z,1015.97
2018-08-21T04:31:41.117Z,1016.02
2018-08-21T04:32:50.751Z,1016.02
2018-08-21T04:34:00.181Z,1016.02
2018-08-21T04:35:09.237Z,1015.99
2018-08-21T04:36:19.146Z,1015.98
2018-08-21T04:37:28.584Z,1016
2018-08-21T04:38:37.483Z,1016.01
2018-08-21T04:39:46.833Z,1016.01
2018-08-21T04:40:55.924Z,1016.02
2018-08-21T04:42:05.419Z,1016.01
2018-08-21T04:43:15.113Z,1016.03
2018-08-21T04:44:24.310Z,1016.04
2018-08-21T04:45:33.686Z,1016.06
2018-08-21T04:46:42.821Z,1016.05
2018-08-21T04:47:52.420Z,1016.1
2018-08-21T04:49:01.954Z,1016.09
2018-08-21T04:50:10.988Z,1016.08
2018-08-21T04:51:20.380Z,1016.11
2018-08-21T04:52:30.237Z,1016.12
2018-08-21T04:53:39.166Z,1016.14
2018-08-21T04:54:48.353Z,1016.13
2018-08-21T04:55:58.263Z,1016.11
2018-08-21T04:57:07.403Z,1016.14
2018-08-21T04:58:17.491Z,1016.12
2018-08-21T04:59:26.774Z,1016.17
2018-08-21T05:00:36.194Z,1016.17
2018-08-21T05:01:45.622Z,1016.14
2018-08-21T05:02:54.985Z,1016.12
2018-08-21T05:04:04.163Z,1016.17
2018-08-21T05:05:13.768Z,1016.14
2018-08-21T05:06:23.100Z,1016.16
2018-08-21T05:07:32.187Z,1016.15
2018-08-21T05:08:41.453Z,1016.15
2018-08-21T05:09:50.690Z,1016.16
2018-08-21T05:10:59.686Z,1016.14
2018-08-21T05:12:09.147Z,1016.13
2018-08-21T05:13:18.654Z,1016.13
2018-08-21T05:14:28.414Z,1016.13
2018-08-21T05:15:38.257Z,1016.13
2018-08-21T05:16:48.034Z,1016.14
2018-08-21T05:17:57.336Z,1016.12
2018-08-21T05:19:07.116Z,1016.13
2018-08-21T05:20:16.872Z,1016.16
2018-08-21T05:21:26.340Z,1016.13
2018-08-21T05:22:36.159Z,1016.14
2018-08-21T05:23:45.965Z,1016.12
2018-08-21T05:24:55.488Z,1016.15
2018-08-21T05:26:04.780Z,1016.19
2018-08-21T05:27:14.048Z,1016.2
2018-08-21T05:28:23.127Z,1016.19
2018-08-21T05:29:32.733Z,1016.18
2018-08-21T05:30:41.480Z,1016.19
2018-08-21T05:31:51.038Z,1016.23
2018-08-21T05:33:00.623Z,1016.23
2018-08-21T05:34:10.495Z,1016.22
2018-08-21T05:35:20.048Z,1016.23
2018-08-21T05:36:29.843Z,1016.24
2018-08-21T05:37:39.312Z,1016.21
2018-08-21T05:38:48.400Z,1016.22
2018-08-21T05:39:58.493Z,1016.23
2018-08-21T05:41:07.797Z,1016.22
2018-08-21T05:42:17.332Z,1016.22
2018-08-21T05:43:26.822Z,1016.23
2018-08-21T05:44:35.965Z,1016.21
2018-08-21T05:45:45.006Z,1016.22
2018-08-21T05:46:54.561Z,1016.23
2018-08-21T05:48:03.845Z,1016.24
2018-08-21T05:49:13.443Z,1016.28
2018-08-21T05:50:22.763Z,1016.25
2018-08-21T05:51:31.789Z,1016.28
2018-08-21T05:52:41.427Z,1016.27
2018-08-21T05:53:50.959Z,1016.3
2018-08-21T05:55:00.764Z,1016.34
2018-08-21T05:56:10.103Z,1016.33
2018-08-21T05:57:19.889Z,1016.3
2018-08-21T05:58:29.164Z,1016.37
2018-08-21T05:59:38.954Z,1016.38
2018-08-21T06:00:47.983Z,1016.36
2018-08-21T06:01:57.312Z,1016.4
2018-08-21T06:03:06.954Z,1016.37
2018-08-21T06:04:16.827Z,1016.4
2018-08-21T06:05:26.156Z,1016.39
2018-08-21T06:06:35.389Z,1016.37
2018-08-21T06:07:45.000Z,1016.4
2018-08-21T06:08:54.988Z,1016.42
2018-08-21T06:10:04.606Z,1016.42
2018-08-21T06:11:14.459Z,1016.44
2018-08-21T06:12:23.753Z,1016.44
2018-08-21T06:13:32.516Z,1016.46
2018-08-21T06:14:42.596Z,1016.45
2018-08-21T06:15:51.622Z,1016.47
2018-08-21T06:17:01.070Z,1016.44
2018-08-21T06:18:11.825Z,1016.45
2018-08-21T06:19:21.036Z,1016.44
2018-08-21T06:20:30.207Z,1016.44
2018-08-21T06:21:40.027Z,1016.45
2018-08-21T06:22:49.942Z,1016.46
2018-08-21T06:23:59.385Z,1016.47
2018-08-21T06:25:08.747Z,1016.46
2018-08-21T06:26:18.141Z,1016.43
2018-08-21T06:27:27.194Z,1016.45
2018-08-21T06:28:37.504Z,1016.46
2018-08-21T06:29:46.862Z,1016.49
2018-08-21T06:30:56.329Z,1016.47
2018-08-21T06:32:06.125Z,1016.49
2018-08-21T06:33:15.160Z,1016.49
2018-08-21T06:34:24.627Z,1016.51
2018-08-21T06:35:35.179Z,1016.56
2018-08-21T06:36:45.282Z,1016.56
2018-08-21T06:37:54.497Z,1016.55
2018-08-21T06:39:03.720Z,1016.57
2018-08-21T06:40:12.772Z,1016.57
2018-08-21T06:41:22.383Z,1016.54
2018-08-21T06:42:31.723Z,1016.55
2018-08-21T06:43:41.599Z,1016.53
2018-08-21T06:44:50.762Z,1016.54
2018-08-21T06:46:00.319Z,1016.55
2018-08-21T06:47:10.157Z,1016.56
2018-08-21T06:48:19.447Z,1016.55
2018-08-21T06:49:28.644Z,1016.56
2018-08-21T06:50:38.771Z,1016.52
2018-08-21T06:51:47.821Z,1016.57
2018-08-21T06:52:57.167Z,1016.55
2018-08-21T06:54:06.386Z,1016.58
2018-08-21T06:55:15.916Z,1016.57
2018-08-21T06:56:25.863Z,1016.58
2018-08-21T06:57:34.639Z,1016.61
2018-08-21T06:58:44.187Z,1016.59
2018-08-21T06:59:53.459Z,1016.59
2018-08-21T07:01:02.681Z,1016.58
2018-08-21T07:02:12.520Z,1016.54
2018-08-21T07:03:22.342Z,1016.55
2018-08-21T07:04:31.457Z,1016.53
2018-08-21T07:05:42.116Z,1016.57
2018-08-21T07:06:51.668Z,1016.58
2018-08-21T07:08:01.183Z,1016.57
2018-08-21T07:09:10.461Z,1016.57
2018-08-21T07:10:20.242Z,1016.61
2018-08-21T07:11:30.067Z,1016.57
2018-08-21T07:12:39.358Z,1016.56
2018-08-21T07:13:48.952Z,1016.55
2018-08-21T07:14:58.221Z,1016.54
2018-08-21T07:16:07.546Z,1016.51
2018-08-21T07:17:17.135Z,1016.53
2018-08-21T07:18:26.427Z,1016.53
2018-08-21T07:19:35.920Z,1016.54
2018-08-21T07:20:45.487Z,1016.55
2018-08-21T07:21:54.549Z,1016.55
2018-08-21T07:23:03.808Z,1016.58
2018-08-21T07:24:13.333Z,1016.6
2018-08-21T07:25:22.967Z,1016.61
2018-08-21T07:26:32.219Z,1016.6
2018-08-21T07:27:41.979Z,1016.65
2018-08-21T07:28:51.494Z,1016.64
2018-08-21T07:30:00.831Z,1016.67
2018-08-21T07:31:10.861Z,1016.65
2018-08-21T07:32:20.609Z,1016.68
2018-08-21T07:33:30.644Z,1016.66
2018-08-21T07:34:39.901Z,1016.63
2018-08-21T07:35:49.429Z,1016.63
2018-08-21T07:36:58.936Z,1016.68
2018-08-21T07:38:07.972Z,1016.68
2018-08-21T07:39:17.261Z,1016.66
2018-08-21T07:40:26.872Z,1016.66
2018-08-21T07:41:36.798Z,1016.72
2018-08-21T07:42:46.940Z,1016.71
2018-08-21T07:43:56.304Z,1016.69
2018-08-21T07:45:05.590Z,1016.7
2018-08-21T07:46:15.645Z,1016.73
2018-08-21T07:47:25.502Z,1016.7
2018-08-21T07:48:34.814Z,1016.71
2018-08-21T07:49:44.050Z,1016.76
2018-08-21T07:50:53.657Z,1016.78
2018-08-21T07:52:02.733Z,1016.74
2018-08-21T07:53:12.139Z,1016.77
2018-08-21T07:54:21.651Z,1016.79
2018-08-21T07:55:31.304Z,1016.73
2018-08-21T07:56:40.752Z,1016.79
2018-08-21T07:57:50.316Z,1016.74
2018-08-21T07:58:59.922Z,1016.72
2018-08-21T08:00:10.477Z,1016.7
2018-08-21T08:01:20.026Z,1016.71
2018-08-21T08:02:29.636Z,1016.71
2018-08-21T08:03:39.435Z,1016.69
2018-08-21T08:04:48.422Z,1016.67
2018-08-21T08:05:57.636Z,1016.7
2018-08-21T08:07:06.992Z,1016.64
2018-08-21T08:08:16.440Z,1016.69
2018-08-21T08:09:25.605Z,1016.68
2018-08-21T08:10:34.610Z,1016.66
2018-08-21T08:11:43.682Z,1016.7
2018-08-21T08:12:52.950Z,1016.71
2018-08-21T08:14:02.327Z,1016.69
2018-08-21T08:15:11.721Z,1016.7
2018-08-21T08:16:21.021Z,1016.68
2018-08-21T08:17:31.066Z,1016.7
2018-08-21T08:18:40.165Z,1016.7
2018-08-21T08:19:50.736Z,1016.68
2018-08-21T08:21:00.321Z,1016.68
2018-08-21T08:22:09.312Z,1016.69
2018-08-21T08:23:18.623Z,1016.72
2018-08-21T08:24:28.164Z,1016.69
2018-08-21T08:25:37.798Z,1016.67
2018-08-21T08:26:47.639Z,1016.7
2018-08-21T08:27:57.432Z,1016.71
2018-08-21T08:29:07.996Z,1016.69
2018-08-21T08:30:17.598Z,1016.67
2018-08-21T08:31:28.293Z,1016.7
2018-08-21T08:32:37.592Z,1016.68
2018-08-21T08:33:47.139Z,1016.68
2018-08-21T08:34:56.845Z,1016.65
2018-08-21T08:36:06.910Z,1016.69
2018-08-21T08:37:16.462Z,1016.66
2018-08-21T08:38:26.336Z,1016.64
2018-08-21T08:39:36.135Z,1016.64
2018-08-21T08:40:45.608Z,1016.61
2018-08-21T08:41:55.609Z,1016.62
2018-08-21T08:43:06.747Z,1016.61
2018-08-21T08:44:16.379Z,1016.62
2018-08-21T08:45:25.904Z,1016.56
2018-08-21T08:46:35.547Z,1016.6
2018-08-21T08:47:44.651Z,1016.62
2018-08-21T08:48:54.055Z,1016.6
2018-08-21T08:50:04.329Z,1016.65
2018-08-21T08:51:13.869Z,1016.62
2018-08-21T08:52:23.701Z,1016.64
2018-08-21T08:53:32.829Z,1016.63
2018-08-21T08:54:42.378Z,1016.65
2018-08-21T08:55:51.681Z,1016.65
2018-08-21T08:57:01.313Z,1016.61
2018-08-21T08:58:10.387Z,1016.66
2018-08-21T08:59:20.242Z,1016.64
2018-08-21T09:00:30.216Z,1016.67
2018-08-21T09:01:39.792Z,1016.63
2018-08-21T09:02:49.172Z,1016.64
2018-08-21T09:03:58.702Z,1016.66
2018-08-21T09:05:08.014Z,1016.62
2018-08-21T09:06:19.482Z,1016.64
2018-08-21T09:07:29.952Z,1016.64
2018-08-21T09:08:39.488Z,1016.62
2018-08-21T09:09:49.014Z,1016.62
2018-08-21T09:11:00.186Z,1016.58
2018-08-21T09:12:09.640Z,1016.62
2018-08-21T09:13:18.932Z,1016.56
2018-08-21T09:14:28.895Z,1016.61
2018-08-21T09:15:38.617Z,1016.56
2018-08-21T09:16:47.898Z,1016.54
2018-08-21T09:17:57.560Z,1016.5
2018-08-21T09:19:07.731Z,1016.47
2018-08-21T09:20:17.588Z,1016.48
2018-08-21T09:21:26.927Z,1016.46
2018-08-21T09:22:36.956Z,1016.48
2018-08-21T09:23:46.488Z,1016.48
2018-08-21T09:24:55.999Z,1016.49
2018-08-21T09:26:05.420Z,1016.5
2018-08-21T09:27:14.703Z,1016.52
2018-08-21T09:28:24.943Z,1016.51
2018-08-21T09:29:34.274Z,1016.54
2018-08-21T09:30:44.247Z,1016.51
2018-08-21T09:31:53.865Z,1016.5
2018-08-21T09:33:03.180Z,1016.5
2018-08-21T09:34:12.780Z,1016.48
2018-08-21T09:35:22.043Z,1016.52
2018-08-21T09:36:32.270Z,1016.45
2018-08-21T09:37:41.322Z,1016.48
2018-08-21T09:38:51.031Z,1016.47
2018-08-21T09:40:00.579Z,1016.5
2018-08-21T09:41:10.215Z,1016.46
2018-08-21T09:42:19.893Z,1016.46
2018-08-21T09:43:29.042Z,1016.43
2018-08-21T09:44:38.904Z,1016.44
2018-08-21T09:45:48.782Z,1016.44
2018-08-21T09:46:58.904Z,1016.44
2018-08-21T09:48:08.624Z,1016.42
2018-08-21T09:49:18.257Z,1016.41
2018-08-21T09:50:28.000Z,1016.4
2018-08-21T09:51:37.559Z,1016.38
2018-08-21T09:52:46.607Z,1016.4
2018-08-21T09:53:55.696Z,1016.38
2018-08-21T09:55:05.297Z,1016.36
2018-08-21T09:56:14.875Z,1016.36
2018-08-21T09:57:24.182Z,1016.37
2018-08-21T09:58:33.569Z,1016.31
2018-08-21T09:59:43.158Z,1016.31
2018-08-21T10:00:52.960Z,1016.29
2018-08-21T10:02:02.321Z,1016.23
2018-08-21T10:03:11.534Z,1016.2
2018-08-21T10:04:20.685Z,1016.21
2018-08-21T10:05:30.300Z,1016.21
2018-08-21T10:06:39.930Z,1016.19
2018-08-21T10:07:49.444Z,1016.18
2018-08-21T10:08:58.877Z,1016.17
2018-08-21T10:10:08.191Z,1016.16
2018-08-21T10:11:18.074Z,1016.15
2018-08-21T10:12:27.686Z,1016.12
2018-08-21T10:13:37.335Z,1016.13
2018-08-21T10:14:46.410Z,1016.12
2018-08-21T10:15:55.590Z,1016.1
2018-08-21T10:17:04.421Z,1016.09
2018-08-21T10:18:13.989Z,1016.07
2018-08-21T10:19:23.571Z,1016.09
2018-08-21T10:20:33.080Z,1016.07
2018-08-21T10:21:42.325Z,1016.06
2018-08-21T10:22:51.485Z,1016.05
2018-08-21T10:24:00.790Z,1016.01
2018-08-21T10:25:10.473Z,1016.01
2018-08-21T10:26:19.842Z,1016.07
2018-08-21T10:27:29.293Z,1016.07
2018-08-21T10:28:38.963Z,1016.04
2018-08-21T10:29:48.671Z,1016.05
2018-08-21T10:30:58.027Z,1016.05
2018-08-21T10:32:07.363Z,1016.05
2018-08-21T10:33:16.893Z,1016.02
2018-08-21T10:34:26.272Z,1016.02
2018-08-21T10:35:35.899Z,1016
2018-08-21T10:36:45.500Z,1016
2018-08-21T10:37:55.371Z,1016
2018-08-21T10:39:05.161Z,1015.97
2018-08-21T10:40:14.493Z,1015.95
2018-08-21T10:41:24.065Z,1015.97
2018-08-21T10:42:33.217Z,1016
2018-08-21T10:43:42.523Z,1016.01
2018-08-21T10:44:51.894Z,1015.96
2018-08-21T10:46:01.597Z,1015.94
2018-08-21T10:47:10.971Z,1015.86
2018-08-21T10:48:20.490Z,1015.89
2018-08-21T10:49:29.761Z,1015.88
2018-08-21T10:50:38.822Z,1015.9
2018-08-21T10:51:47.975Z,1015.86
2018-08-21T10:52:57.970Z,1015.87
2018-08-21T10:54:07.594Z,1015.9
2018-08-21T10:55:16.911Z,1015.87
2018-08-21T10:56:26.075Z,1015.88
2018-08-21T10:57:35.700Z,1015.95
2018-08-21T10:58:44.804Z,1015.94
2018-08-21T10:59:54.261Z,1015.85
2018-08-21T11:01:03.405Z,1015.86
2018-08-21T11:02:12.727Z,1015.86
2018-08-21T11:03:22.073Z,1015.8
2018-08-21T11:04:31.738Z,1015.84
2018-08-21T11:05:41.144Z,1015.81
2018-08-21T11:06:51.418Z,1015.83
2018-08-21T11:08:00.575Z,1015.8
2018-08-21T11:09:09.907Z,1015.77
2018-08-21T11:10:19.271Z,1015.74
2018-08-21T11:11:29.199Z,1015.74
2018-08-21T11:12:38.160Z,1015.77
2018-08-21T11:13:47.636Z,1015.77
2018-08-21T11:14:57.833Z,1015.79
2018-08-21T11:16:07.340Z,1015.8
2018-08-21T11:17:16.383Z,1015.83
2018-08-21T11:18:26.137Z,1015.83
2018-08-21T11:19:35.841Z,1015.81
2018-08-21T11:20:45.857Z,1015.8
2018-08-21T11:21:55.755Z,1015.82
2018-08-21T11:23:05.555Z,1015.76
2018-08-21T11:24:14.707Z,1015.78
2018-08-21T11:25:24.550Z,1015.79
2018-08-21T11:26:33.866Z,1015.75
2018-08-21T11:27:43.436Z,1015.71
2018-08-21T11:28:53.445Z,1015.69
2018-08-21T11:30:02.488Z,1015.66
2018-08-21T11:31:11.944Z,1015.69
2018-08-21T11:32:21.642Z,1015.63
2018-08-21T11:33:31.355Z,1015.61
2018-08-21T11:34:40.574Z,1015.65
2018-08-21T11:35:50.209Z,1015.63
2018-08-21T11:36:59.672Z,1015.68
2018-08-21T11:38:08.602Z,1015.65
2018-08-21T11:39:18.052Z,1015.65
2018-08-21T11:40:27.503Z,1015.66
2018-08-21T11:41:36.946Z,1015.63
2018-08-21T11:42:46.388Z,1015.68
2018-08-21T11:43:55.590Z,1015.64
2018-08-21T11:45:05.473Z,1015.64
2018-08-21T11:46:14.427Z,1015.64
2018-08-21T11:47:23.620Z,1015.6
2018-08-21T11:48:33.132Z,1015.6
2018-08-21T11:49:42.254Z,1015.59
2018-08-21T11:50:51.728Z,1015.54
2018-08-21T11:52:01.002Z,1015.58
2018-08-21T11:53:10.813Z,1015.56
2018-08-21T11:54:20.504Z,1015.54
2018-08-21T11:55:29.519Z,1015.55
2018-08-21T11:56:38.809Z,1015.57
2018-08-21T11:57:47.989Z,1015.54
2018-08-21T11:58:57.424Z,1015.58
2018-08-21T12:00:06.598Z,1015.56
2018-08-21T12:01:16.049Z,1015.55
2018-08-21T12:02:25.434Z,1015.54
2018-08-21T12:03:35.198Z,1015.53
2018-08-21T12:04:44.887Z,1015.53
2018-08-21T12:05:54.004Z,1015.53
2018-08-21T12:07:03.572Z,1015.47
2018-08-21T12:08:12.454Z,1015.44
2018-08-21T12:09:22.257Z,1015.43
2018-08-21T12:10:31.638Z,1015.41
2018-08-21T12:11:40.966Z,1015.42
2018-08-21T12:12:50.380Z,1015.42
2018-08-21T12:13:59.906Z,1015.44
2018-08-21T12:15:09.320Z,1015.42
2018-08-21T12:16:18.739Z,1015.4
2018-08-21T12:17:27.780Z,1015.39
2018-08-21T12:18:37.414Z,1015.36
2018-08-21T12:19:47.490Z,1015.36
2018-08-21T12:20:56.640Z,1015.36
2018-08-21T12:22:05.972Z,1015.4
2018-08-21T12:23:15.416Z,1015.38
2018-08-21T12:24:25.395Z,1015.35
2018-08-21T12:25:34.219Z,1015.32
2018-08-21T12:26:43.546Z,1015.3
2018-08-21T12:27:53.380Z,1015.29
2018-08-21T12:29:02.822Z,1015.3
2018-08-21T12:30:11.925Z,1015.29
2018-08-21T12:31:21.544Z,1015.28
2018-08-21T12:32:30.925Z,1015.26
2018-08-21T12:33:40.806Z,1015.25
2018-08-21T12:34:50.539Z,1015.18
2018-08-21T12:36:00.433Z,1015.2
2018-08-21T12:37:10.142Z,1015.16
2018-08-21T12:38:19.869Z,1015.17
2018-08-21T12:39:29.156Z,1015.15
2018-08-21T12:40:39.067Z,1015.15
2018-08-21T12:41:48.482Z,1015.19
2018-08-21T12:42:58.070Z,1015.1
2018-08-21T12:44:07.749Z,1015.13
2018-08-21T12:45:17.328Z,1015.13
2018-08-21T12:46:26.703Z,1015.13
2018-08-21T12:47:36.726Z,1015.11
2018-08-21T12:48:46.989Z,1015.08
2018-08-21T12:49:56.148Z,1015.12
2018-08-21T12:51:05.353Z,1015.06
2018-08-21T12:52:14.430Z,1015.08
2018-08-21T12:53:24.015Z,1015.05
2018-08-21T12:54:34.143Z,1015.05
2018-08-21T12:55:43.496Z,1015.05
2018-08-21T12:56:53.428Z,1015.03
2018-08-21T12:58:02.948Z,1015.01
2018-08-21T12:59:12.378Z,1014.99
2018-08-21T13:00:21.778Z,1014.97
2018-08-21T13:01:32.088Z,1014.99
2018-08-21T13:02:41.184Z,1014.98
2018-08-21T13:03:50.279Z,1014.93
2018-08-21T13:04:59.649Z,1014.92
2018-08-21T13:06:08.990Z,1014.95
2018-08-21T13:07:18.559Z,1014.93
2018-08-21T13:08:27.790Z,1014.95
2018-08-21T13:09:37.449Z,1014.98
2018-08-21T13:10:46.504Z,1014.97
2018-08-21T13:11:56.153Z,1014.93
2018-08-21T13:13:05.461Z,1014.95
2018-08-21T13:14:14.913Z,1014.93
2018-08-21T13:15:24.540Z,1014.94
2018-08-21T13:16:34.141Z,1014.89
2018-08-21T13:17:43.610Z,1014.91
2018-08-21T13:18:53.178Z,1014.91
2018-08-21T13:20:02.428Z,1014.87
2018-08-21T13:21:11.757Z,1014.85
2018-08-21T13:22:21.562Z,1014.88
2018-08-21T13:23:30.574Z,1014.83
2018-08-21T13:24:40.446Z,1014.84
2018-08-21T13:25:49.707Z,1014.84
2018-08-21T13:26:59.072Z,1014.81
2018-08-21T13:28:08.012Z,1014.83
2018-08-21T13:29:17.177Z,1014.79
2018-08-21T13:30:26.785Z,1014.75
2018-08-21T13:31:36.259Z,1014.73
2018-08-21T13:32:45.404Z,1014.75
2018-08-21T13:33:55.063Z,1014.76
2018-08-21T13:35:04.333Z,1014.73
2018-08-21T13:36:13.830Z,1014.72
2018-08-21T13:37:24.037Z,1014.67
2018-08-21T13:38:33.098Z,1014.66
2018-08-21T13:39:42.197Z,1014.65
2018-08-21T13:40:51.752Z,1014.64
2018-08-21T13:42:01.317Z,1014.66
2018-08-21T13:43:10.925Z,1014.66
2018-08-21T13:44:20.631Z,1014.66
2018-08-21T13:45:29.946Z,1014.69
2018-08-21T13:46:40.033Z,1014.69
2018-08-21T13:47:49.648Z,1014.71
2018-08-21T13:48:58.945Z,1014.72
2018-08-21T13:50:08.497Z,1014.69
2018-08-21T13:51:17.769Z,1014.68
2018-08-21T13:52:27.318Z,1014.63
2018-08-21T13:53:37.201Z,1014.64
2018-08-21T13:54:46.833Z,1014.63
2018-08-21T13:55:56.194Z,1014.63
2018-08-21T13:57:05.560Z,1014.6
2018-08-21T13:58:14.842Z,1014.6
2018-08-21T13:59:24.454Z,1014.59
2018-08-21T14:00:33.330Z,1014.59
2018-08-21T14:01:42.946Z,1014.58
2018-08-21T14:02:52.364Z,1014.59
2018-08-21T14:04:01.840Z,1014.57